• Join FlightAware (Why Join?)
  • Login
  • US Flag 
05:20AM EDT


 

Airport Tracker/Info


-or-


 

Live Flight TrackerFlight Track Log ✈ FDX1425 ✈ 03-Aug-2013 ✈ KMEM - KIAH

Flight Track Log - Related Links

Times and Time Zones

All times are in EDT time to prevent confusion due to time zone crossing. See the FDX1425 flight status page for this flight to view local times or setup timezone preferences in your user account.

Time Position Orientation Groundspeed Altitude Reporting Facility
EDT Latitude Longitude Course Direction KTS MPH feet Rate Location/Type
05:02AM 35.0167 -89.9833 226° Southwest 150 173 1,000  Level KMEM
05:03AM 34.9833 -89.9833 180° South 172 198 2,300 2,040 Climbing KMEM
05:04AM 34.9167 -89.9833 180° South 266 306 4,500 2,340 Climbing KMEM
05:05AM 34.8500 -89.9833 180° South 295 339 6,800 2,520 Climbing KMEM
05:06AM 34.7064 -90.0058 187° South 332 382 11,200 2,340 Climbing Memphis Center
05:07AM 34.6483 -90.1047 235° Southwest 344 396 13,300 2,280 Climbing Memphis Center
05:08AM 34.5179 -90.4443 226° Southwest  Level FlightAware Approximate
05:08AM 34.6025 -90.2208 244° Southwest 370 426 15,800  Level Memphis Center
05:09AM 34.5525 -90.3394 243° Southwest 390 449 18,000 2,220 Climbing Memphis Center
05:10AM 34.5003 -90.4581 242° Southwest 402 463 20,300 2,040 Climbing Memphis Center
05:11AM 34.4083 -90.5511 220° Southwest 408 470 22,100 1,620 Climbing Memphis Center
05:12AM 34.3247 -90.6314 218° Southwest 419 482 23,600 1,500 Climbing Memphis Center
05:13AM 34.2264 -90.7189 216° Southwest 435 501 25,200 1,500 Climbing Memphis Center
05:14AM 34.1261 -90.8064 216° Southwest 446 513 26,600 1,200 Climbing Memphis Center
05:15AM 34.0192 -90.9008 216° Southwest 469 540 27,700 1,140 Climbing Memphis Center
05:16AM 33.9144 -90.9956 217° Southwest 475 547 28,900 1,200 Climbing Memphis Center
05:17AM 33.7992 -91.1022 218° Southwest 487 560 30,100 1,080 Climbing Memphis Center
05:18AM 33.6961 -91.1886 215° Southwest 487 560 31,100 1,020 Climbing Memphis Center
05:19AM 33.5850 -91.2897 217° Southwest 492 566 32,200 1,140 Climbing Memphis Center
05:21AM 33.3975 -91.4550 216° Southwest 491 565 34,200 480 Climbing Fort Worth Center
05:27AM 32.7370 -92.0270 216° Southwest 497 572 36,000 240 Climbing FlightAware
05:28AM 32.6500 -92.1010 216° Southwest 498 573 36,000  Level FlightAware
05:29AM 32.5620 -92.1760 216° Southwest 497 572 36,000  Level FlightAware
05:29AM 32.4910 -92.2370 216° Southwest 498 573 36,000  Level FlightAware
05:30AM 32.4360 -92.2850 216° Southwest 499 574 36,000  Level FlightAware
05:30AM 32.3480 -92.3580 215° Southwest 500 575 36,000  Level FlightAware
05:31AM 32.2880 -92.4090 216° Southwest 499 574 36,000  Level FlightAware
05:32AM 32.2260 -92.4620 216° Southwest 499 574 36,000  Level FlightAware
05:32AM 32.1550 -92.5220 216° Southwest 500 575 36,000  Level FlightAware
05:33AM 32.0760 -92.5890 216° Southwest 501 577 36,000  Level FlightAware
05:33AM 32.0210 -92.6360 216° Southwest 500 575 36,000  Level FlightAware
05:34AM 31.9600 -92.6890 216° Southwest 499 574 36,000  Level FlightAware
05:35AM 31.8880 -92.7600 220° Southwest 499 574 36,000  Level FlightAware
05:35AM 31.8350 -92.8100 219° Southwest 499 574 36,000  Level FlightAware
05:36AM 31.7630 -92.8810 220° Southwest 499 574 36,000  Level FlightAware
05:36AM 31.7090 -92.9330 219° Southwest 499 574 36,000  Level FlightAware
05:37AM 31.6310 -93.0080 219° Southwest 499 574 36,000  Level FlightAware
05:38AM 31.5740 -93.0620 219° Southwest 499 574 36,000  Level FlightAware
05:38AM 31.4700 -93.1620 219° Southwest 500 575 36,000  Level FlightAware
05:39AM 31.4150 -93.2140 219° Southwest 500 575 36,000  Level FlightAware
05:39AM 31.3853 -93.2441 221° Southwest 499 574 36,000  Level FlightAware ADS-B
05:40AM 31.3110 -93.3144 219° Southwest 499 574 36,000 -240 Level FlightAware ADS-B
05:41AM 31.2249 -93.3963 219° Southwest 501 577 35,700 -1,260 Descending FlightAware ADS-B
05:41AM 31.1682 -93.4511 220° Southwest 502 578 34,400 -2,760 Descending FlightAware ADS-B
05:42AM 31.1140 -93.5028 219° Southwest 502 578 32,900 -2,700 Descending FlightAware ADS-B
05:42AM 31.0521 -93.5608 219° Southwest 497 572 31,500 -2,400 Descending FlightAware ADS-B
05:43AM 30.9983 -93.6122 219° Southwest 484 557 30,300 -2,340 Descending FlightAware ADS-B
05:44AM 30.8811 -93.7230 219° Southwest 462 532 27,700 -2,220 Descending FlightAware ADS-B
05:44AM 30.8306 -93.7706 219° Southwest 449 517 26,600 -2,160 Descending FlightAware ADS-B
05:45AM 30.7772 -93.8203 219° Southwest 442 509 25,400 -2,160 Descending FlightAware ADS-B
05:46AM 30.7299 -93.8649 219° Southwest 433 498 24,300 -2,220 Descending FlightAware ADS-B
05:46AM 30.6824 -93.9100 219° Southwest 426 490 23,200 -2,100 Descending FlightAware ADS-B
05:47AM 30.6364 -93.9525 218° Southwest 416 479 22,200 -2,100 Descending FlightAware ADS-B
05:47AM 30.5913 -93.9944 219° Southwest 412 474 21,100 -2,220 Descending FlightAware ADS-B
05:48AM 30.5463 -94.0368 219° Southwest 404 465 20,000 -2,100 Descending FlightAware ADS-B
05:48AM 30.5262 -94.0563 220° Southwest 401 461 19,600 -1,860 Descending FlightAware ADS-B
05:48AM 30.5147 -94.0700 226° Southwest 400 460 19,300 -1,620 Descending FlightAware ADS-B
05:48AM 30.5027 -94.0864 230° Southwest 397 457 19,100 -900 Descending FlightAware ADS-B
05:49AM 30.4723 -94.1401 237° Southwest 400 460 18,700 -1,620 Descending FlightAware ADS-B
05:50AM 30.4119 -94.2504 237° Southwest 394 453 16,700 -2,040 Descending FlightAware ADS-B
05:51AM 30.3527 -94.3564 237° Southwest 379 436 14,600 -2,040 Descending FlightAware ADS-B
05:52AM 30.2964 -94.4567 237° Southwest 362 417 12,700 -1,920 Descending FlightAware ADS-B
05:52AM 30.2692 -94.5053 237° Southwest 354 407 11,800 -1,440 Descending FlightAware ADS-B
05:53AM 30.2410 -94.5550 237° Southwest 337 388 11,200 -960 Descending FlightAware ADS-B
05:53AM 30.2161 -94.5999 237° Southwest 314 361 10,800 -1,140 Descending FlightAware ADS-B
05:55AM 30.1350 -94.7458 238° Southwest 281 323 8,600 -1,200 Descending FlightAware ADS-B
05:55AM 30.1241 -94.7647 236° Southwest 278 320 8,300 -1,200 Descending FlightAware ADS-B
05:56AM 30.1133 -94.7834 236° Southwest 276 318 8,000 -960 Descending FlightAware ADS-B
05:57AM 30.0665 -94.8681 236° Southwest 230 265 6,900 -900 Descending FlightAware ADS-B
05:57AM 30.0418 -94.9085 236° Southwest 230 265 6,400 -900 Descending FlightAware ADS-B
05:58AM 30.0258 -94.9373 237° Southwest 228 262 5,900 -1,020 Descending FlightAware ADS-B
05:59AM 30.0007 -94.9835 237° Southwest 223 257 5,200 -1,020 Descending FlightAware ADS-B
05:59AM 29.9986 -94.9875 239° Southwest 224 258 5,100 -1,740 Descending FlightAware ADS-B
05:59AM 29.9972 -94.9906 242° Southwest 225 259 5,000 -1,080 Descending FlightAware ADS-B
05:59AM 29.9941 -95.0149 265° West 232 267 4,700 -1,080 Descending FlightAware ADS-B
06:00AM 29.9933 -95.0690 270° West 223 257 3,900 -840 Descending FlightAware ADS-B
06:00AM 29.9934 -95.0976 270° West 205 236 3,800 -360 Descending FlightAware ADS-B
06:00AM 29.9934 -95.1094 270° West 197 227 3,700 -1,080 Descending FlightAware ADS-B
06:01AM 29.9935 -95.1262 270° West 195 224 3,300 -1,320 Descending FlightAware ADS-B
06:01AM 29.9934 -95.1428 270° West 192 221 3,000 -1,080 Descending FlightAware ADS-B
06:01AM 29.9934 -95.1737 270° West 182 209 2,500 -900 Descending FlightAware ADS-B
06:02AM 29.9935 -95.1945 270° West 160 184 2,200 -720 Descending FlightAware ADS-B
06:02AM 29.9935 -95.2113 271° West 144 166 2,000 -840 Descending FlightAware ADS-B
06:02AM 29.9934 -95.2242 269° West 142 163 1,700 -780 Descending FlightAware ADS-B
06:03AM 29.9934 -95.2363 270° West 141 162 1,600 -600 Descending FlightAware ADS-B
06:03AM 29.9934 -95.2477 270° West 142 163 1,400 -780 Descending FlightAware ADS-B
06:03AM 29.9935 -95.2590 271° West 138 159 1,200 -840 Descending FlightAware ADS-B
06:04AM 29.9934 -95.2707 269° West 137 158 1,000 -840 Descending FlightAware ADS-B
06:04AM 29.9934 -95.2809 270° West 136 157 800 -780 Descending FlightAware ADS-B
06:04AM 29.9934 -95.2940 270° West 136 157 600 -780 Descending FlightAware ADS-B
06:04AM 29.9934 -95.3050 270° West 136 157 400 -840 Descending FlightAware ADS-B
06:05AM 29.9934 -95.3160 270° West 137 158 200 -840 Descending FlightAware ADS-B
06:05AM 29.9934 -95.3387 270° West 92 106 -420 Descending FlightAware ADS-B